Highgate, Vermont
Current Conditions -  °F | °C
As of 11:55 AM on Saturday 25 Oct 2014 (Local Time) from KFSO Reporting Station
Scattered Clouds Scattered Clouds  
Wind Chill: 54°   Ceiling: Unl
Heat Index: 54°   Visibility: 10mi
Dew Point: 41°   Wind: 7mph
Humidity: 62%   Direction: 190°S
Pressure: 29.68"   Gusts: NA
Location:  44.958°N, 72.9958°W
Report Text: KFSO 251555Z AUTO 19006KT 10SM SCT045 12/05 A2968 RMK AO2 T01230051
Loading
Personal Weather Stations






























Interactive Weather Map
Tropical Storm Tracking
New forecast layout! Learn more

10-Day Weather Forecast

Advertisements
Track Severe Weather on mobile